createdAt,value
2017-10-23T00:01:19.542Z,77.32
2017-10-23T00:03:46.543Z,77.01
2017-10-23T00:06:12.854Z,76.43
2017-10-23T00:08:46.165Z,75.94
2017-10-23T00:11:12.509Z,74.98
2017-10-23T00:13:38.837Z,74.43
2017-10-23T00:16:05.198Z,75.23
2017-10-23T00:18:32.282Z,75.77
2017-10-23T00:20:58.571Z,76.22
2017-10-23T00:23:25.035Z,75.53
2017-10-23T00:25:51.354Z,76.79
2017-10-23T00:28:18.369Z,76.85
2017-10-23T00:30:44.689Z,76.02
2017-10-23T00:33:11.029Z,76.04
2017-10-23T00:35:37.365Z,76.21
2017-10-23T00:38:03.789Z,75.26
2017-10-23T00:40:30.138Z,74.99
2017-10-23T00:42:56.466Z,75.97
2017-10-23T00:45:23.608Z,75.90
2017-10-23T00:47:50.023Z,75.52
2017-10-23T00:50:16.378Z,75.45
2017-10-23T00:52:42.787Z,75.61
2017-10-23T00:55:09.217Z,75.24
2017-10-23T00:57:35.553Z,74.77
2017-10-23T01:00:01.888Z,75.52
2017-10-23T01:02:28.327Z,74.92
2017-10-23T01:04:54.653Z,75.23
2017-10-23T01:07:21.045Z,75.19
2017-10-23T01:09:47.350Z,74.97
2017-10-23T01:12:13.989Z,74.53
2017-10-23T01:14:40.347Z,74.46
2017-10-23T01:17:06.756Z,75.60
2017-10-23T01:19:33.139Z,75.79
2017-10-23T01:21:59.563Z,75.69
2017-10-23T01:24:25.985Z,76.74
2017-10-23T01:26:52.376Z,76.34
2017-10-23T01:29:18.750Z,76.78
2017-10-23T01:31:45.106Z,76.68
2017-10-23T01:34:11.480Z,76.90
2017-10-23T01:36:37.876Z,76.49
2017-10-23T01:39:04.216Z,76.02
2017-10-23T01:41:30.532Z,76.26
2017-10-23T01:43:56.887Z,75.86
2017-10-23T01:46:23.256Z,76.09
2017-10-23T01:48:50.376Z,76.16
2017-10-23T01:51:16.672Z,75.49
2017-10-23T01:53:43.008Z,74.48
2017-10-23T01:56:09.775Z,75.55
2017-10-23T01:58:36.313Z,75.87
2017-10-23T02:01:02.613Z,76.14
2017-10-23T02:03:28.953Z,76.49
2017-10-23T02:05:55.299Z,76.23
2017-10-23T02:08:21.787Z,76.37
2017-10-23T02:10:48.267Z,75.66
2017-10-23T02:13:14.638Z,75.95
2017-10-23T02:15:40.970Z,76.49
2017-10-23T02:18:07.260Z,76.08
2017-10-23T02:20:33.589Z,76.23
2017-10-23T02:22:59.919Z,75.83
2017-10-23T02:25:26.241Z,75.28
2017-10-23T02:27:53.479Z,75.06
2017-10-23T02:30:19.861Z,75.50
2017-10-23T02:32:46.958Z,75.66
2017-10-23T02:35:13.238Z,75.59
2017-10-23T02:37:40.461Z,75.41
2017-10-23T02:40:06.912Z,75.59
2017-10-23T02:42:33.234Z,75.20
2017-10-23T02:44:59.642Z,74.48
2017-10-23T02:47:26.791Z,74.50
2017-10-23T02:49:53.110Z,75.03
2017-10-23T02:52:19.387Z,75.93
2017-10-23T02:54:45.715Z,75.81
2017-10-23T02:57:12.023Z,76.04
2017-10-23T02:59:38.300Z,75.46
2017-10-23T03:02:04.589Z,74.97
2017-10-23T03:04:30.913Z,75.28
2017-10-23T03:06:57.504Z,76.01
2017-10-23T03:09:24.556Z,75.44
2017-10-23T03:11:52.162Z,74.79
2017-10-23T03:14:18.486Z,75.24
2017-10-23T03:16:44.839Z,75.66
2017-10-23T03:19:11.171Z,75.87
2017-10-23T03:21:37.677Z,75.42
2017-10-23T03:24:04.037Z,74.89
2017-10-23T03:26:30.509Z,75.46
2017-10-23T03:28:56.973Z,76.09
2017-10-23T03:31:23.566Z,75.55
2017-10-23T03:33:49.946Z,75.78
2017-10-23T03:36:16.374Z,75.66
2017-10-23T03:38:42.814Z,76.02
2017-10-23T03:41:09.132Z,75.05
2017-10-23T03:43:36.412Z,76.03
2017-10-23T03:46:02.823Z,75.91
2017-10-23T03:48:29.210Z,75.19
2017-10-23T03:50:55.602Z,75.15
2017-10-23T03:53:22.900Z,76.31
2017-10-23T03:55:49.197Z,76.39
2017-10-23T03:58:15.537Z,75.64
2017-10-23T04:00:41.964Z,75.79
2017-10-23T04:03:08.334Z,75.88
2017-10-23T04:05:34.700Z,75.51
2017-10-23T04:08:01.033Z,75.62
2017-10-23T04:10:27.416Z,76.20
2017-10-23T04:12:53.713Z,75.93
2017-10-23T04:15:20.865Z,76.02
2017-10-23T04:17:47.293Z,75.51
2017-10-23T04:20:13.671Z,74.84
2017-10-23T04:22:40.768Z,75.67
2017-10-23T04:25:07.183Z,74.96
2017-10-23T04:27:34.355Z,74.00
2017-10-23T04:30:00.696Z,75.40
2017-10-23T04:32:27.074Z,75.15
2017-10-23T04:34:54.164Z,75.15
2017-10-23T04:37:20.532Z,74.98
2017-10-23T04:39:46.912Z,74.96
2017-10-23T04:42:13.269Z,75.09
2017-10-23T04:44:39.720Z,75.35
2017-10-23T04:47:06.037Z,74.41
2017-10-23T04:49:32.458Z,74.62
2017-10-23T04:51:58.794Z,74.74
2017-10-23T04:54:25.225Z,73.94
2017-10-23T04:56:51.657Z,73.98
2017-10-23T04:59:18.030Z,73.72
2017-10-23T05:01:44.525Z,73.73
2017-10-23T05:04:10.905Z,73.65
2017-10-23T05:06:37.271Z,73.53
2017-10-23T05:09:04.373Z,73.27
2017-10-23T05:11:30.665Z,73.03
2017-10-23T05:13:57.011Z,74.04
2017-10-23T05:16:23.438Z,73.70
2017-10-23T05:18:49.807Z,73.17
2017-10-23T05:21:16.105Z,72.76
2017-10-23T05:23:43.317Z,72.98
2017-10-23T05:26:10.500Z,71.99
2017-10-23T05:28:36.864Z,72.00
2017-10-23T05:31:03.234Z,72.56
2017-10-23T05:33:29.608Z,72.40
2017-10-23T05:35:56.010Z,72.01
2017-10-23T05:38:22.316Z,71.56
2017-10-23T05:40:50.161Z,72.19
2017-10-23T05:43:16.454Z,71.90
2017-10-23T05:45:42.901Z,72.90
2017-10-23T05:48:09.245Z,72.73
2017-10-23T05:50:35.581Z,71.78
2017-10-23T05:53:01.875Z,71.93
2017-10-23T05:55:28.263Z,73.01
2017-10-23T05:57:54.637Z,73.02
2017-10-23T06:00:20.984Z,72.27
2017-10-23T06:02:47.365Z,73.41
2017-10-23T06:05:13.757Z,73.14
2017-10-23T06:07:40.178Z,73.50
2017-10-23T06:10:06.577Z,72.78
2017-10-23T06:12:32.947Z,72.25
2017-10-23T06:14:59.276Z,72.14
2017-10-23T06:17:25.569Z,72.16
2017-10-23T06:19:52.660Z,71.70
2017-10-23T06:22:19.032Z,72.10
2017-10-23T06:24:45.376Z,71.52
2017-10-23T06:27:11.782Z,71.23
2017-10-23T06:29:38.190Z,70.96
2017-10-23T06:32:04.514Z,70.93
2017-10-23T06:34:30.842Z,71.69
2017-10-23T06:36:57.230Z,71.97
2017-10-23T06:39:23.612Z,71.19
2017-10-23T06:41:50.049Z,70.42
2017-10-23T06:44:16.349Z,71.13
2017-10-23T06:46:42.736Z,70.50
2017-10-23T06:49:09.118Z,70.27
2017-10-23T06:51:35.559Z,70.16
2017-10-23T06:54:01.915Z,69.94
2017-10-23T06:56:28.362Z,69.90
2017-10-23T06:58:54.709Z,69.70
2017-10-23T07:01:21.049Z,69.79
2017-10-23T07:03:47.458Z,70.03
2017-10-23T07:06:13.809Z,69.83
2017-10-23T07:08:40.223Z,70.03
2017-10-23T07:11:06.653Z,70.24
2017-10-23T07:13:33.099Z,70.08
2017-10-23T07:15:59.471Z,70.33
2017-10-23T07:18:26.606Z,70.04
2017-10-23T07:20:53.014Z,69.06
2017-10-23T07:23:19.347Z,69.11
2017-10-23T07:25:45.701Z,68.81
2017-10-23T07:28:12.129Z,68.87
2017-10-23T07:30:38.520Z,69.25
2017-10-23T07:33:04.849Z,68.59
2017-10-23T07:35:31.180Z,67.78
2017-10-23T07:37:57.476Z,67.79
2017-10-23T07:40:24.723Z,67.06
2017-10-23T07:42:51.822Z,67.43
2017-10-23T07:45:18.236Z,67.19
2017-10-23T07:47:44.739Z,67.21
2017-10-23T07:50:11.934Z,66.25
2017-10-23T07:52:38.328Z,65.88
2017-10-23T07:55:06.417Z,66.13
2017-10-23T07:57:32.793Z,66.14
2017-10-23T07:59:59.311Z,66.11
2017-10-23T08:02:25.736Z,65.71
2017-10-23T08:04:52.058Z,65.45
2017-10-23T08:07:18.465Z,66.13
2017-10-23T08:09:45.540Z,64.96
2017-10-23T08:12:11.816Z,64.75
2017-10-23T08:14:38.252Z,65.15
2017-10-23T08:17:04.645Z,64.96
2017-10-23T08:19:31.025Z,64.91
2017-10-23T08:21:57.424Z,64.08
2017-10-23T08:24:23.979Z,63.20
2017-10-23T08:26:50.302Z,63.95
2017-10-23T08:29:17.420Z,63.87
2017-10-23T08:31:43.746Z,64.15
2017-10-23T08:34:10.130Z,63.25
2017-10-23T08:36:37.409Z,63.38
2017-10-23T08:39:03.778Z,63.04
2017-10-23T08:41:30.109Z,63.44
2017-10-23T08:43:57.404Z,62.17
2017-10-23T08:46:23.740Z,61.96
2017-10-23T08:48:50.089Z,60.53
2017-10-23T08:51:16.447Z,59.83
2017-10-23T08:53:42.735Z,59.96
2017-10-23T08:56:09.111Z,59.99
2017-10-23T08:58:35.447Z,59.45
2017-10-23T09:01:01.917Z,58.61
2017-10-23T09:03:28.957Z,57.42
2017-10-23T09:05:55.445Z,56.78
2017-10-23T09:08:21.841Z,58.79
2017-10-23T09:10:48.292Z,59.41
2017-10-23T09:13:16.343Z,60.12
2017-10-23T09:15:42.861Z,59.59
2017-10-23T09:18:09.350Z,59.42
2017-10-23T09:20:35.697Z,57.44
2017-10-23T09:23:01.994Z,58.89
2017-10-23T09:25:29.138Z,58.76
2017-10-23T09:27:55.536Z,58.00
2017-10-23T09:30:21.879Z,58.65
2017-10-23T09:32:48.342Z,60.20
2017-10-23T09:35:15.561Z,59.29
2017-10-23T09:37:42.226Z,59.97
2017-10-23T09:40:08.566Z,61.94
2017-10-23T09:42:36.815Z,61.88
2017-10-23T09:45:03.356Z,62.22
2017-10-23T09:47:29.771Z,62.00
2017-10-23T09:49:57.258Z,63.29
2017-10-23T09:52:23.682Z,63.59
2017-10-23T09:54:50.217Z,64.17
2017-10-23T09:57:16.611Z,63.71
2017-10-23T09:59:43.014Z,63.63
2017-10-23T10:02:10.239Z,62.84
2017-10-23T10:04:36.621Z,62.90
2017-10-23T10:07:03.834Z,63.38
2017-10-23T10:09:30.169Z,63.41
2017-10-23T10:11:56.565Z,61.54
2017-10-23T10:14:23.413Z,60.02
2017-10-23T10:16:49.761Z,59.79
2017-10-23T10:19:16.865Z,60.91
2017-10-23T10:21:43.251Z,61.96
2017-10-23T10:24:09.641Z,62.25
2017-10-23T10:26:36.017Z,61.11
2017-10-23T10:29:02.367Z,63.44
2017-10-23T10:31:28.835Z,63.78
2017-10-23T10:33:55.212Z,62.35
2017-10-23T10:36:22.385Z,62.04
2017-10-23T10:38:49.487Z,60.00
2017-10-23T10:41:16.645Z,61.12
2017-10-23T10:43:43.086Z,63.12
2017-10-23T10:46:09.515Z,63.37
2017-10-23T10:48:36.631Z,62.61
2017-10-23T10:51:03.014Z,62.63
2017-10-23T10:53:29.365Z,62.33
2017-10-23T10:55:56.593Z,62.83
2017-10-23T10:58:22.990Z,62.09
2017-10-23T11:00:49.411Z,63.29
2017-10-23T11:03:16.622Z,62.17
2017-10-23T11:05:43.720Z,62.80
2017-10-23T11:08:10.056Z,64.54
2017-10-23T11:10:36.362Z,65.48
2017-10-23T11:13:02.697Z,66.29
2017-10-23T11:15:29.062Z,65.30
2017-10-23T11:17:56.274Z,64.63
2017-10-23T11:20:22.679Z,63.53
2017-10-23T11:22:48.999Z,64.54
2017-10-23T11:25:15.333Z,66.26
2017-10-23T11:27:41.813Z,65.38
2017-10-23T11:30:09.157Z,65.75
2017-10-23T11:32:35.517Z,64.61
2017-10-23T11:35:01.790Z,63.31
2017-10-23T11:37:28.220Z,61.86
2017-10-23T11:39:54.657Z,62.97
2017-10-23T11:42:21.052Z,64.50
2017-10-23T11:44:47.348Z,62.60
2017-10-23T11:47:13.720Z,63.52
2017-10-23T11:49:40.087Z,62.92
2017-10-23T11:52:06.452Z,63.57
2017-10-23T11:54:32.824Z,62.49
2017-10-23T11:56:59.326Z,62.35
2017-10-23T11:59:25.691Z,61.96
2017-10-23T12:01:52.026Z,60.71
2017-10-23T12:04:18.500Z,60.46
2017-10-23T12:06:45.159Z,57.80
2017-10-23T12:09:11.538Z,52.98
2017-10-23T12:11:37.970Z,52.14
2017-10-23T12:14:04.367Z,55.21
2017-10-23T12:16:30.759Z,55.56
2017-10-23T12:18:58.724Z,55.71
2017-10-23T12:21:25.204Z,57.20
2017-10-23T12:23:51.697Z,57.45
2017-10-23T12:26:18.973Z,57.42
2017-10-23T12:28:45.568Z,58.63
2017-10-23T12:31:11.960Z,57.97
2017-10-23T12:33:38.391Z,59.23
2017-10-23T12:36:04.719Z,59.36
2017-10-23T12:38:31.021Z,60.53
2017-10-23T12:40:57.431Z,61.85
2017-10-23T12:43:23.746Z,62.94
2017-10-23T12:45:50.077Z,63.86
2017-10-23T12:48:16.418Z,64.37
2017-10-23T12:50:42.888Z,64.31
2017-10-23T12:53:09.350Z,66.54
2017-10-23T12:55:35.962Z,67.25
2017-10-23T12:58:03.008Z,68.05
2017-10-23T13:00:30.085Z,69.42
2017-10-23T13:02:56.454Z,69.49
2017-10-23T13:05:22.847Z,68.91
2017-10-23T13:07:49.197Z,65.69
2017-10-23T13:10:15.693Z,64.32
2017-10-23T13:12:42.096Z,63.07
2017-10-23T13:15:08.457Z,62.27
2017-10-23T13:17:35.623Z,62.54
2017-10-23T13:20:02.033Z,60.20
2017-10-23T13:22:28.524Z,57.89
2017-10-23T13:24:54.980Z,59.18
2017-10-23T13:27:21.403Z,59.06
2017-10-23T13:29:47.994Z,60.85
2017-10-23T13:32:14.469Z,61.34
2017-10-23T13:34:40.835Z,63.71
2017-10-23T13:37:15.015Z,63.65
2017-10-23T13:39:41.412Z,63.56
2017-10-23T13:42:07.809Z,65.62
2017-10-23T13:44:35.061Z,66.27
2017-10-23T13:47:02.187Z,67.52
2017-10-23T13:49:28.597Z,67.93
2017-10-23T13:51:54.978Z,67.15
2017-10-23T13:54:21.550Z,65.77
2017-10-23T13:56:47.965Z,65.20
2017-10-23T13:59:16.020Z,66.27
2017-10-23T14:01:43.179Z,67.02
2017-10-23T14:04:10.333Z,67.34
2017-10-23T14:06:37.545Z,67.48
2017-10-23T14:09:04.971Z,69.99
2017-10-23T14:11:31.508Z,69.67
2017-10-23T14:13:57.906Z,69.02
2017-10-23T14:16:24.362Z,68.15
2017-10-23T14:18:52.038Z,67.89
2017-10-23T14:21:18.432Z,68.42
2017-10-23T14:23:45.531Z,69.31
2017-10-23T14:26:11.870Z,70.10
2017-10-23T14:28:38.346Z,70.74
2017-10-23T14:31:05.323Z,72.28
2017-10-23T14:33:31.855Z,72.11
2017-10-23T14:35:58.300Z,72.13
2017-10-23T14:38:24.733Z,74.07
2017-10-23T14:40:51.102Z,74.03
2017-10-23T14:43:17.500Z,72.46
2017-10-23T14:45:43.818Z,72.21
2017-10-23T14:48:10.263Z,72.15
2017-10-23T14:50:36.684Z,71.53
2017-10-23T14:53:03.115Z,71.78
2017-10-23T14:55:29.518Z,70.31
2017-10-23T14:57:56.893Z,70.60
2017-10-23T15:00:24.132Z,72.01
2017-10-23T15:02:51.406Z,71.83
2017-10-23T15:05:17.855Z,71.51
2017-10-23T15:07:44.243Z,71.00
2017-10-23T15:10:10.670Z,70.45
2017-10-23T15:12:37.005Z,71.11
2017-10-23T15:15:03.331Z,70.70
2017-10-23T15:17:29.820Z,71.02
2017-10-23T15:19:57.869Z,70.98
2017-10-23T15:22:25.209Z,70.70
2017-10-23T15:24:52.813Z,70.79
2017-10-23T15:27:19.597Z,70.23
2017-10-23T15:29:45.915Z,70.21
2017-10-23T15:32:12.325Z,69.80
2017-10-23T15:34:38.927Z,70.05
2017-10-23T15:37:06.049Z,70.89
2017-10-23T15:39:32.439Z,71.47
2017-10-23T15:41:58.913Z,71.27
2017-10-23T15:44:25.287Z,70.38
2017-10-23T15:46:51.739Z,71.01
2017-10-23T15:49:18.266Z,70.92
2017-10-23T15:51:44.669Z,70.61
2017-10-23T15:54:11.866Z,70.83
2017-10-23T15:56:38.265Z,70.97
2017-10-23T15:59:05.467Z,70.83
2017-10-23T16:01:32.744Z,70.88
2017-10-23T16:03:59.101Z,71.11
2017-10-23T16:06:26.351Z,70.52
2017-10-23T16:08:54.379Z,70.19
2017-10-23T16:11:20.823Z,70.28
2017-10-23T16:13:47.218Z,69.88
2017-10-23T16:16:13.529Z,70.74
2017-10-23T16:18:39.932Z,70.02
2017-10-23T16:21:06.278Z,70.24
2017-10-23T16:23:34.181Z,70.02
2017-10-23T16:26:00.676Z,70.58
2017-10-23T16:28:27.089Z,70.50
2017-10-23T16:30:53.765Z,70.34
2017-10-23T16:33:20.875Z,69.82
2017-10-23T16:35:47.278Z,70.64
2017-10-23T16:38:13.587Z,70.83
2017-10-23T16:40:40.033Z,70.95
2017-10-23T16:43:06.356Z,70.76
2017-10-23T16:45:32.828Z,70.62
2017-10-23T16:47:59.157Z,71.29
2017-10-23T16:50:25.537Z,70.88
2017-10-23T16:52:52.649Z,70.45
2017-10-23T16:55:18.973Z,71.30
2017-10-23T16:57:45.564Z,71.09
2017-10-23T17:00:12.055Z,71.17
2017-10-23T17:02:38.507Z,71.26
2017-10-23T17:05:04.987Z,71.48
2017-10-23T17:07:31.485Z,71.01
2017-10-23T17:09:58.608Z,71.05
2017-10-23T17:12:25.248Z,70.85
2017-10-23T17:14:52.478Z,71.45
2017-10-23T17:17:19.590Z,71.54
2017-10-23T17:19:46.101Z,71.58
2017-10-23T17:22:13.267Z,71.05
2017-10-23T17:24:41.045Z,70.39
2017-10-23T17:27:07.521Z,71.05
2017-10-23T17:29:33.893Z,71.77
2017-10-23T17:32:01.065Z,71.41
2017-10-23T17:34:27.478Z,71.44
2017-10-23T17:36:53.861Z,71.68
2017-10-23T17:39:20.201Z,71.09
2017-10-23T17:41:46.570Z,70.39
2017-10-23T17:44:13.660Z,70.33
2017-10-23T17:46:40.149Z,70.15
2017-10-23T17:49:07.290Z,69.99
2017-10-23T17:51:33.816Z,69.37
2017-10-23T17:54:00.428Z,69.46
2017-10-23T17:56:26.812Z,69.29
2017-10-23T17:58:53.193Z,69.41
2017-10-23T18:01:19.582Z,69.48
2017-10-23T18:03:46.745Z,69.41
2017-10-23T18:06:13.511Z,68.59
2017-10-23T18:08:39.871Z,68.52
2017-10-23T18:11:06.508Z,67.95
2017-10-23T18:13:33.045Z,68.56
2017-10-23T18:15:59.553Z,67.93
2017-10-23T18:18:26.007Z,68.00
2017-10-23T18:20:52.453Z,68.34
2017-10-23T18:23:18.860Z,69.18
2017-10-23T18:25:45.248Z,69.16
2017-10-23T18:28:12.445Z,68.86
2017-10-23T18:30:38.804Z,69.12
2017-10-23T18:33:05.240Z,68.87
2017-10-23T18:35:31.581Z,68.78
2017-10-23T18:37:58.008Z,68.67
2017-10-23T18:40:24.437Z,68.55
2017-10-23T18:42:51.200Z,68.92
2017-10-23T18:45:18.436Z,68.85
2017-10-23T18:47:45.760Z,69.39
2017-10-23T18:50:12.098Z,69.07
2017-10-23T18:52:38.436Z,68.73
2017-10-23T18:55:05.804Z,68.57
2017-10-23T18:57:32.311Z,68.13
2017-10-23T18:59:58.802Z,67.94
2017-10-23T19:02:25.925Z,67.87
2017-10-23T19:04:52.555Z,67.48
2017-10-23T19:07:18.889Z,67.30
2017-10-23T19:09:45.291Z,67.66
2017-10-23T19:12:12.209Z,67.57
2017-10-23T19:14:45.721Z,67.62
2017-10-23T19:17:12.138Z,68.25
2017-10-23T19:19:39.228Z,67.80
2017-10-23T19:22:06.568Z,67.17
2017-10-23T19:24:32.968Z,67.23
2017-10-23T19:27:00.099Z,67.07
2017-10-23T19:29:26.572Z,67.17
2017-10-23T19:31:52.982Z,67.92
2017-10-23T19:34:19.499Z,67.66
2017-10-23T19:36:46.745Z,67.44
2017-10-23T19:39:13.245Z,67.00
2017-10-23T19:41:39.686Z,67.25
2017-10-23T19:44:06.306Z,67.82
2017-10-23T19:46:33.266Z,68.12
2017-10-23T19:48:59.895Z,68.41
2017-10-23T19:51:26.226Z,68.26
2017-10-23T19:53:52.696Z,68.64
2017-10-23T19:56:18.983Z,68.55
2017-10-23T19:58:45.330Z,68.86
2017-10-23T20:01:11.698Z,68.89
2017-10-23T20:03:38.232Z,69.09
2017-10-23T20:06:04.679Z,69.53
2017-10-23T20:08:31.089Z,69.58
2017-10-23T20:10:57.390Z,69.60
2017-10-23T20:13:23.696Z,70.02
2017-10-23T20:15:50.029Z,70.47
2017-10-23T20:18:17.099Z,70.53
2017-10-23T20:20:43.469Z,70.76
2017-10-23T20:23:09.842Z,71.10
2017-10-23T20:25:36.945Z,71.30
2017-10-23T20:28:03.245Z,71.78
2017-10-23T20:30:29.543Z,72.01
2017-10-23T20:32:56.570Z,71.98
2017-10-23T20:35:22.911Z,72.13
2017-10-23T20:37:49.289Z,72.35
2017-10-23T20:40:15.614Z,72.51
2017-10-23T20:42:42.946Z,72.74
2017-10-23T20:45:11.126Z,73.10
2017-10-23T20:47:38.395Z,73.44
2017-10-23T20:50:05.376Z,73.19
2017-10-23T20:52:31.797Z,73.58
2017-10-23T20:54:59.080Z,73.82
2017-10-23T20:57:25.506Z,73.76
2017-10-23T20:59:52.611Z,73.80
2017-10-23T21:02:18.936Z,73.60
2017-10-23T21:04:45.237Z,73.68
2017-10-23T21:07:11.579Z,73.40
2017-10-23T21:09:37.994Z,73.28
2017-10-23T21:12:04.363Z,73.34
2017-10-23T21:14:30.681Z,73.46
2017-10-23T21:16:56.991Z,73.60
2017-10-23T21:19:23.281Z,73.56
2017-10-23T21:21:50.470Z,73.62
2017-10-23T21:24:16.896Z,73.80
2017-10-23T21:26:43.230Z,73.70
2017-10-23T21:29:09.608Z,73.59
2017-10-23T21:31:35.925Z,73.69
2017-10-23T21:34:03.077Z,73.53
2017-10-23T21:36:29.459Z,73.31
2017-10-23T21:38:55.839Z,73.05
2017-10-23T21:41:22.170Z,73.11
2017-10-23T21:43:48.465Z,73.63
2017-10-23T21:46:14.803Z,73.61
2017-10-23T21:48:41.161Z,74.24
2017-10-23T21:51:08.274Z,74.18
2017-10-23T21:53:34.682Z,74.55
2017-10-23T21:56:01.010Z,73.99
2017-10-23T21:58:27.413Z,74.10
2017-10-23T22:00:53.790Z,74.20
2017-10-23T22:03:20.166Z,74.53
2017-10-23T22:05:47.441Z,74.45
2017-10-23T22:08:13.840Z,75.00
2017-10-23T22:10:40.169Z,75.24
2017-10-23T22:13:06.654Z,75.37
2017-10-23T22:15:33.024Z,75.48
2017-10-23T22:17:59.472Z,75.68
2017-10-23T22:20:25.856Z,75.95
2017-10-23T22:22:52.269Z,76.15
2017-10-23T22:25:18.752Z,76.31
2017-10-23T22:27:45.115Z,76.30
2017-10-23T22:30:12.182Z,76.27
2017-10-23T22:32:38.551Z,75.71
2017-10-23T22:35:04.879Z,75.84
2017-10-23T22:37:31.170Z,75.49
2017-10-23T22:39:57.533Z,75.52
2017-10-23T22:42:23.903Z,75.45
2017-10-23T22:44:50.195Z,75.31
2017-10-23T22:47:16.551Z,75.08
2017-10-23T22:49:42.987Z,75.25
2017-10-23T22:52:09.317Z,75.26
2017-10-23T22:54:35.615Z,75.16
2017-10-23T22:57:02.083Z,75.14
2017-10-23T22:59:29.132Z,74.76
2017-10-23T23:01:55.435Z,74.28
2017-10-23T23:04:21.795Z,74.03
2017-10-23T23:06:48.132Z,74.42
2017-10-23T23:09:14.418Z,74.57
2017-10-23T23:11:41.280Z,74.60
2017-10-23T23:14:07.768Z,74.22
2017-10-23T23:16:34.809Z,74.08
2017-10-23T23:19:01.183Z,73.55
2017-10-23T23:21:27.525Z,73.16
2017-10-23T23:23:53.874Z,73.28
2017-10-23T23:26:20.248Z,73.17
2017-10-23T23:28:46.606Z,73.34
2017-10-23T23:31:12.924Z,73.58
2017-10-23T23:33:39.236Z,73.83
2017-10-23T23:36:13.225Z,73.89
2017-10-23T23:38:40.278Z,73.67
2017-10-23T23:41:07.343Z,73.58
2017-10-23T23:43:34.389Z,73.61
2017-10-23T23:46:01.400Z,74.01
2017-10-23T23:48:28.450Z,74.32
2017-10-23T23:50:54.715Z,74.46
2017-10-23T23:53:21.031Z,74.15
2017-10-23T23:55:48.045Z,74.14
2017-10-23T23:58:14.351Z,74.05
